Time;durP1;ratioP1;P1;durP2;ratioP2;P2;SDS_P1;SDS_P2;PMS_P1;PMS_P2;Temp;Humidity;BMP_temperature;BMP_pressure;BME280_temperature;BME280_humidity;BME280_pressure;Samples;Min_cycle;Max_cycle;Signal;HPM_P1;HPM_P2
2022/12/21 00:00:48;;;;;;;2.45;1.85;;;;;;;12.58;36.77;99233.03;6042701;23;20065;-87
2022/12/21 00:03:16;;;;;;;2.85;2.00;;;;;;;12.70;36.81;99229.59;6042676;23;20045;-87
2022/12/21 00:05:42;;;;;;;2.65;1.90;;;;;;;12.54;36.70;99204.28;6042564;23;20006;-87
2022/12/21 00:08:07;;;;;;;2.28;1.70;;;;;;;12.59;36.85;99221.28;6041158;23;20347;-87
2022/12/21 00:10:33;;;;;;;2.65;1.90;;;;;;;12.50;36.70;99203.88;6042901;23;20341;-87
2022/12/21 00:12:59;;;;;;;2.17;1.58;;;;;;;12.52;36.89;99206.34;6065926;23;20590;-88
2022/12/21 00:15:25;;;;;;;2.50;1.50;;;;;;;12.53;36.84;99208.78;6018023;23;20016;-87
2022/12/21 00:17:50;;;;;;;2.10;1.70;;;;;;;12.55;36.80;99216.59;6017819;23;20006;-87
2022/12/21 00:20:16;;;;;;;1.85;1.60;;;;;;;12.48;37.06;99222.06;6042225;23;20061;-87
2022/12/21 00:22:42;;;;;;;2.17;1.70;;;;;;;12.54;37.25;99218.47;6018991;23;20081;-87
2022/12/21 00:25:08;;;;;;;2.20;1.85;;;;;;;12.60;36.72;99224.78;6065726;23;20030;-87
2022/12/21 00:27:34;;;;;;;2.28;1.80;;;;;;;12.55;36.91;99222.78;6017994;23;20070;-87
2022/12/21 00:29:59;;;;;;;2.38;1.42;;;;;;;12.61;36.60;99236.31;6018595;23;20053;-86
2022/12/21 00:32:26;;;;;;;2.08;1.50;;;;;;;12.56;36.78;99239.69;6066462;23;20038;-87
2022/12/21 00:34:55;;;;;;;1.83;1.55;;;;;;;12.62;36.73;99238.75;6040216;23;20097;-86
2022/12/21 00:37:21;;;;;;;2.17;1.80;;;;;;;12.55;36.85;99228.13;6040982;23;20146;-87
2022/12/21 00:39:46;;;;;;;1.60;1.50;;;;;;;12.59;37.02;99218.59;6042428;23;20050;-87
2022/12/21 00:42:14;;;;;;;1.85;1.58;;;;;;;12.55;36.76;99212.06;6042408;23;20010;-87
2022/12/21 00:44:43;;;;;;;2.17;1.80;;;;;;;12.58;36.83;99210.78;6041020;23;20323;-87
2022/12/21 00:47:09;;;;;;;1.73;1.63;;;;;;;12.64;36.78;99222.44;6042126;23;20086;-87
2022/12/21 00:49:34;;;;;;;2.33;1.70;;;;;;;12.51;36.66;99200.16;6042140;23;20010;-87
2022/12/21 00:52:00;;;;;;;1.75;1.58;;;;;;;12.57;36.96;99203.78;6042492;23;19999;-87
2022/12/21 00:54:26;;;;;;;1.58;1.48;;;;;;;12.58;36.99;99200.06;6040998;23;20033;-87
2022/12/21 00:56:52;;;;;;;2.00;1.58;;;;;;;12.49;36.95;99180.81;6017602;23;20022;-87
2022/12/21 00:59:18;;;;;;;2.35;1.63;;;;;;;12.58;37.11;99179.44;6018502;23;20013;-87
2022/12/21 01:01:43;;;;;;;1.80;1.60;;;;;;;12.56;36.70;99168.13;6042258;23;20006;-87
2022/12/21 01:04:09;;;;;;;1.40;1.23;;;;;;;12.69;36.63;99177.81;6064099;23;20106;-87
2022/12/21 01:06:35;;;;;;;1.77;1.48;;;;;;;12.63;36.62;99160.00;6042710;23;20041;-87
2022/12/21 01:09:00;;;;;;;1.52;1.40;;;;;;;12.49;36.80;99151.34;6042242;23;20013;-87
2022/12/21 01:11:32;;;;;;;1.65;1.40;;;;;;;12.54;36.69;99156.84;6040359;23;20282;-87
2022/12/21 01:13:59;;;;;;;1.27;1.17;;;;;;;12.54;36.76;99156.03;6041276;23;20014;-88
2022/12/21 01:16:29;;;;;;;1.42;1.30;;;;;;;12.62;37.09;99168.25;6066131;23;20385;-87
2022/12/21 01:18:55;;;;;;;1.95;1.50;;;;;;;12.63;37.15;99153.81;6018218;23;20002;-88
2022/12/21 01:21:26;;;;;;;1.80;1.50;;;;;;;12.67;36.97;99161.16;6040487;23;20447;-87
2022/12/21 01:23:53;;;;;;;2.20;1.38;;;;;;;12.61;37.01;99161.25;6066403;23;20256;-87
2022/12/21 01:26:18;;;;;;;1.67;1.50;;;;;;;12.55;37.05;99157.66;6041845;23;20042;-88
2022/12/21 01:28:44;;;;;;;2.25;1.52;;;;;;;12.62;36.73;99157.53;6041181;23;20018;-87
2022/12/21 01:31:10;;;;;;;1.60;1.50;;;;;;;12.50;36.98;99150.28;6065385;23;20010;-88
2022/12/21 01:33:36;;;;;;;1.50;1.33;;;;;;;12.57;36.80;99151.03;6065654;23;20491;-88
2022/12/21 01:36:09;;;;;;;1.80;1.40;;;;;;;12.49;37.01;99135.28;6065922;23;20002;-88
2022/12/21 01:38:35;;;;;;;1.50;1.23;;;;;;;12.61;37.01;99139.81;6017688;23;20014;-87
2022/12/21 01:41:01;;;;;;;1.33;1.23;;;;;;;12.65;36.92;99146.38;6017258;23;20444;-88
2022/12/21 01:43:46;;;;;;;1.58;1.20;;;;;;;12.64;37.08;99156.28;6018118;23;20013;-88
2022/12/21 01:46:45;;;;;;;1.67;1.42;;;;;;;12.63;36.78;99153.81;6041962;23;20518;-88
2022/12/21 01:49:16;;;;;;;2.22;1.55;;;;;;;12.59;36.91;99142.75;6032644;23;20065;-88
2022/12/21 01:51:42;;;;;;;1.77;1.30;;;;;;;12.64;37.02;99150.91;6066743;23;20002;-87
2022/12/21 01:54:14;;;;;;;2.03;1.42;;;;;;;12.56;36.79;99130.63;6065833;23;20144;-87
2022/12/21 01:56:44;;;;;;;2.10;1.55;;;;;;;12.63;37.11;99146.59;6012719;23;20444;-88
2022/12/21 01:59:28;;;;;;;1.00;0.90;;;;;;;12.48;37.14;99109.50;6012521;23;20035;-88
2022/12/21 02:01:54;;;;;;;1.48;1.38;;;;;;;12.64;37.14;99128.63;6036654;23;20011;-88
2022/12/21 02:04:20;;;;;;;1.77;1.40;;;;;;;12.60;36.96;99122.94;6037147;23;20014;-87
2022/12/21 02:06:49;;;;;;;1.40;1.30;;;;;;;12.60;37.18;99130.97;6035273;23;20081;-88
2022/12/21 02:09:15;;;;;;;2.13;1.52;;;;;;;12.55;36.92;99118.25;6036941;23;20429;-88
2022/12/21 02:11:41;;;;;;;1.48;1.25;;;;;;;12.64;36.94;99129.47;6038346;23;20006;-88
2022/12/21 02:14:11;;;;;;;1.88;1.40;;;;;;;12.56;37.11;99111.06;6037850;23;20070;-88
2022/12/21 02:16:59;;;;;;;2.45;1.40;;;;;;;12.71;36.88;99116.78;6035718;23;20385;-89
2022/12/21 02:20:02;;;;;;;1.50;1.10;;;;;;;12.71;36.91;99129.34;6036345;23;20011;-88
2022/12/21 02:22:54;;;;;;;1.95;1.10;;;;;;;12.69;37.13;99116.16;6061320;23;20018;-88
2022/12/21 02:25:38;;;;;;;1.05;1.00;;;;;;;12.68;36.99;99125.28;6029739;23;20015;-89
2022/12/21 02:28:12;;;;;;;1.52;1.42;;;;;;;12.66;36.97;99110.44;6062756;23;20007;-88
2022/12/21 02:30:56;;;;;;;1.90;1.38;;;;;;;12.64;37.03;99112.56;6062935;23;20313;-88
2022/12/21 02:34:05;;;;;;;1.67;1.25;;;;;;;12.59;37.22;99105.22;6060682;23;20086;-88
2022/12/21 02:36:51;;;;;;;1.48;1.20;;;;;;;12.71;37.03;99098.00;6035575;23;20296;-88
2022/12/21 02:39:59;;;;;;;1.33;1.13;;;;;;;12.73;37.17;99097.78;6062543;23;20011;-89
2022/12/21 02:45:54;;;;;;;1.75;1.20;;;;;;;12.58;36.84;99071.44;6059374;23;20042;-89
2022/12/21 02:48:27;;;;;;;1.67;1.30;;;;;;;12.65;37.02;99074.81;6060612;23;20429;-89
2022/12/21 02:50:53;;;;;;;1.58;1.33;;;;;;;12.63;36.91;99068.88;6012847;23;20344;-89
2022/12/21 02:53:22;;;;;;;1.40;1.10;;;;;;;12.55;37.05;99056.63;6035677;23;20007;-89
2022/12/21 02:55:48;;;;;;;1.10;0.90;;;;;;;12.64;37.03;99056.28;6017921;23;20029;-88
2022/12/21 02:58:18;;;;;;;1.75;1.30;;;;;;;12.73;37.16;99069.09;6041602;23;20010;-89
2022/12/21 03:00:53;;;;;;;1.20;1.10;;;;;;;12.70;37.02;99072.25;6039357;23;20006;-89
2022/12/21 03:03:54;;;;;;;1.23;1.13;;;;;;;12.71;36.82;99063.16;6065916;23;20010;-89
2022/12/21 03:06:40;;;;;;;1.33;1.10;;;;;;;12.62;37.21;99056.50;6043383;23;20014;-90
2022/12/21 03:09:44;;;;;;;1.48;1.10;;;;;;;12.69;36.97;99059.06;6043414;23;20017;-89
2022/12/21 03:12:12;;;;;;;1.20;1.10;;;;;;;12.69;37.13;99062.56;6042877;23;20452;-90
2022/12/21 03:14:55;;;;;;;2.13;1.30;;;;;;;12.69;37.04;99040.31;6090496;23;20033;-90
2022/12/21 03:17:45;;;;;;;1.55;1.20;;;;;;;12.77;37.11;99048.00;6021155;23;20025;-90
2022/12/21 03:20:13;;;;;;;1.40;1.08;;;;;;;12.74;37.00;99046.59;6093260;23;20007;-90
2022/12/21 03:22:58;;;;;;;1.27;1.02;;;;;;;12.68;37.26;99044.06;6091289;23;20424;-90
2022/12/21 03:25:36;;;;;;;1.67;1.00;;;;;;;12.66;37.39;99038.91;6091635;23;20010;-90
2022/12/21 03:28:07;;;;;;;1.45;1.08;;;;;;;12.64;37.32;99037.50;6020474;23;20462;-90
2022/12/21 03:30:48;;;;;;;1.27;1.17;;;;;;;12.62;37.17;99029.69;6020508;23;20014;-89
2022/12/21 03:33:16;;;;;;;1.20;0.90;;;;;;;12.61;37.28;99032.59;6048606;23;20014;-90
2022/12/21 03:36:19;;;;;;;1.88;1.10;;;;;;;12.68;37.22;99031.47;6044018;23;20054;-90
2022/12/21 03:38:48;;;;;;;1.52;1.00;;;;;;;12.65;37.26;99018.50;5975192;24;20111;-90
2022/12/21 03:41:29;;;;;;;1.17;1.05;;;;;;;12.68;36.90;99019.94;6027604;23;20058;-90
2022/12/21 03:43:55;;;;;;;1.00;0.90;;;;;;;12.53;37.17;98997.09;6067503;23;20006;-90
2022/12/21 03:46:30;;;;;;;1.10;0.98;;;;;;;12.65;37.19;99023.06;6043679;23;20093;-90
2022/12/21 03:49:13;;;;;;;1.15;1.05;;;;;;;12.61;36.98;98997.75;6043237;23;20011;-90
2022/12/21 03:51:45;;;;;;;1.10;1.00;;;;;;;12.58;37.39;98997.19;6046150;23;20379;-91
2022/12/21 03:54:47;;;;;;;1.58;1.10;;;;;;;12.73;37.34;99010.13;6020434;23;20010;-90
2022/12/21 03:57:13;;;;;;;1.08;0.85;;;;;;;12.73;37.31;98993.22;6038415;23;20447;-91
2022/12/21 03:59:42;;;;;;;1.17;0.80;;;;;;;12.69;37.57;99000.91;6015022;23;20054;-91
2022/12/21 04:02:19;;;;;;;1.63;1.00;;;;;;;12.73;37.34;98995.91;6015271;23;20007;-91
2022/12/21 04:05:08;;;;;;;1.27;1.00;;;;;;;12.70;37.25;98999.06;6063865;23;20035;-90
2022/12/21 04:07:34;;;;;;;1.10;1.00;;;;;;;12.56;37.43;98980.53;6064261;23;20022;-91
2022/12/21 04:10:04;;;;;;;1.08;0.98;;;;;;;12.68;37.26;98985.09;6038862;23;20003;-90
2022/12/21 04:12:36;;;;;;;1.15;1.00;;;;;;;12.61;37.38;98979.00;6014965;23;20002;-91
2022/12/21 04:15:23;;;;;;;1.27;1.00;;;;;;;12.73;37.57;98982.50;6038725;23;20441;-91
2022/12/21 04:17:50;;;;;;;1.17;0.95;;;;;;;12.72;37.26;98968.28;6037845;23;20011;-91
2022/12/21 04:20:20;;;;;;;1.45;0.90;;;;;;;12.73;37.50;98969.09;6038251;23;20014;-90
2022/12/21 04:28:24;;;;;;;0.70;0.70;;;;;;;12.68;37.24;98964.44;6042029;23;20224;-90
2022/12/21 04:30:50;;;;;;;1.08;0.90;;;;;;;12.68;37.48;98966.31;6038029;23;20011;-91
2022/12/21 04:33:17;;;;;;;0.80;0.70;;;;;;;12.63;37.58;98955.50;6038203;23;20013;-91
2022/12/21 04:38:28;;;;;;;0.93;0.82;;;;;;;12.66;37.50;98955.00;6042028;23;20074;-91
2022/12/21 04:40:57;;;;;;;1.00;0.82;;;;;;;12.64;37.52;98949.91;6014273;23;20015;-91
2022/12/21 04:43:22;;;;;;;0.90;0.80;;;;;;;12.64;37.26;98957.09;6014880;23;20047;-91
2022/12/21 04:45:48;;;;;;;1.42;1.00;;;;;;;12.52;37.50;98931.16;6038357;23;20007;-91
2022/12/21 04:48:14;;;;;;;1.15;0.95;;;;;;;12.57;37.38;98939.31;6037819;23;20157;-90
2022/12/21 04:50:43;;;;;;;0.82;0.82;;;;;;;12.61;37.16;98938.81;6013188;23;20037;-91
2022/12/21 04:53:09;;;;;;;0.80;0.70;;;;;;;12.68;37.46;98939.50;6014758;23;20010;-90
2022/12/21 04:55:34;;;;;;;1.17;0.90;;;;;;;12.68;37.45;98921.56;6016426;23;20073;-90
2022/12/21 04:58:00;;;;;;;1.10;0.70;;;;;;;12.64;37.38;98920.41;6041759;23;20010;-90
2022/12/21 05:00:26;;;;;;;1.02;0.90;;;;;;;12.62;37.54;98910.97;6066061;23;20065;-90
2022/12/21 05:02:51;;;;;;;0.77;0.77;;;;;;;12.62;37.34;98924.38;6065492;23;20002;-90
2022/12/21 05:05:17;;;;;;;1.10;0.90;;;;;;;12.64;37.26;98915.06;6065734;23;20006;-89
2022/12/21 05:07:43;;;;;;;0.95;0.85;;;;;;;12.65;37.43;98910.50;6065439;23;20507;-90
2022/12/21 05:10:09;;;;;;;0.70;0.70;;;;;;;12.65;37.33;98911.31;6065959;23;20013;-90
2022/12/21 05:12:35;;;;;;;0.73;0.73;;;;;;;12.62;37.35;98900.25;6066092;23;20003;-89
2022/12/21 05:15:01;;;;;;;0.95;0.80;;;;;;;12.66;37.74;98906.75;6065359;23;20014;-90
2022/12/21 05:17:26;;;;;;;0.73;0.60;;;;;;;12.68;37.53;98894.75;6041646;23;20051;-91
2022/12/21 05:19:52;;;;;;;0.65;0.60;;;;;;;12.70;37.51;98894.53;6067777;23;20424;-96
2022/12/21 05:22:30;;;;;;;0.70;0.70;;;;;;;12.68;37.82;98883.22;6068213;23;20090;-91
2022/12/21 05:24:56;;;;;;;1.15;0.75;;;;;;;12.65;38.03;98879.13;6042427;23;20110;-92
2022/12/21 05:27:21;;;;;;;0.82;0.70;;;;;;;12.62;37.77;98849.31;6065869;23;20011;-92
2022/12/21 05:29:50;;;;;;;1.17;0.80;;;;;;;12.73;37.89;98865.38;6066094;23;20006;-90
2022/12/21 05:32:16;;;;;;;0.68;0.68;;;;;;;12.73;38.00;98883.31;6066531;23;20028;-92
2022/12/21 05:34:41;;;;;;;2.42;0.90;;;;;;;12.71;38.01;98872.00;6018243;23;20440;-92
2022/12/21 05:37:07;;;;;;;0.75;0.70;;;;;;;12.78;37.96;98878.88;6065594;23;20340;-92
2022/12/21 05:39:36;;;;;;;0.75;0.70;;;;;;;12.78;38.23;98886.09;6017733;23;20447;-92
2022/12/21 05:42:02;;;;;;;2.05;0.80;;;;;;;12.67;38.03;98876.22;6018166;23;20010;-92
2022/12/21 05:44:28;;;;;;;0.70;0.70;;;;;;;12.68;37.98;98877.88;6040729;23;20006;-92
2022/12/21 05:46:54;;;;;;;1.17;0.80;;;;;;;12.56;37.82;98865.31;6016375;23;20147;-92
2022/12/21 05:49:23;;;;;;;0.80;0.57;;;;;;;12.55;37.49;98852.13;6040902;23;20010;-92
2022/12/21 05:51:49;;;;;;;0.70;0.70;;;;;;;12.56;37.37;98856.47;6064595;23;20010;-91
2022/12/21 05:54:15;;;;;;;1.33;0.68;;;;;;;12.66;37.64;98885.31;6018140;23;20022;-91
2022/12/21 05:56:44;;;;;;;1.40;0.63;;;;;;;12.58;37.71;98868.56;6041454;23;20023;-91
2022/12/21 05:59:10;;;;;;;0.47;0.47;;;;;;;12.71;37.62;98882.72;6041906;23;20038;-91
2022/12/21 06:01:35;;;;;;;0.60;0.60;;;;;;;12.72;38.05;98884.38;6018796;23;20018;-91
2022/12/21 06:04:01;;;;;;;1.10;0.70;;;;;;;12.51;37.83;98856.34;6041663;23;20010;-90
2022/12/21 06:06:27;;;;;;;1.92;0.65;;;;;;;12.69;37.76;98882.16;6041993;23;19998;-90
2022/12/21 06:08:53;;;;;;;0.77;0.70;;;;;;;12.53;37.37;98855.06;6040946;23;20013;-90
2022/12/21 06:11:20;;;;;;;1.58;0.60;;;;;;;12.65;37.44;98875.66;6041534;23;20342;-90
2022/12/21 06:13:46;;;;;;;1.05;0.70;;;;;;;12.56;37.33;98862.63;6041222;23;20014;-90
2022/12/21 06:16:14;;;;;;;0.63;0.63;;;;;;;12.56;37.75;98859.94;6018511;23;20002;-90
2022/12/21 06:18:42;;;;;;;0.52;0.50;;;;;;;12.62;37.83;98863.53;6042068;23;20084;-90
2022/12/21 06:21:09;;;;;;;0.55;0.52;;;;;;;12.59;37.87;98864.84;6041789;23;20006;-90
2022/12/21 06:23:35;;;;;;;1.10;0.73;;;;;;;12.32;37.96;98826.25;6017666;23;20021;-90
2022/12/21 06:26:02;;;;;;;0.60;0.60;;;;;;;12.36;37.79;98836.22;6017618;23;20018;-90
2022/12/21 06:28:29;;;;;;;0.70;0.70;;;;;;;12.32;37.67;98821.69;6041326;23;20002;-90
2022/12/21 06:31:00;;;;;;;0.80;0.80;;;;;;;12.30;37.23;98823.00;6018072;23;20316;-91
2022/12/21 06:33:26;;;;;;;0.60;0.60;;;;;;;12.57;37.06;98861.59;6041601;23;20285;-90
2022/12/21 06:35:55;;;;;;;1.15;0.60;;;;;;;12.42;37.61;98825.59;6065719;23;20014;-90
2022/12/21 06:38:22;;;;;;;1.00;0.85;;;;;;;12.40;38.00;98832.03;6091166;23;20021;-90
2022/12/21 06:40:54;;;;;;;0.50;0.47;;;;;;;12.45;37.83;98835.84;6043376;23;20010;-90
2022/12/21 06:43:20;;;;;;;0.68;0.68;;;;;;;12.31;37.89;98805.84;6043477;23;20417;-90
2022/12/21 06:45:55;;;;;;;0.68;0.50;;;;;;;12.43;37.64;98820.03;6067810;23;20434;-90
2022/12/21 06:48:23;;;;;;;0.50;0.50;;;;;;;12.31;37.59;98801.28;6091079;23;20101;-92
2022/12/21 06:50:57;;;;;;;1.40;0.60;;;;;;;12.38;37.83;98814.56;6067311;23;20037;-91
2022/12/21 06:53:23;;;;;;;0.75;0.70;;;;;;;12.25;37.81;98796.09;6020060;23;20072;-91
2022/12/21 06:55:49;;;;;;;0.63;0.60;;;;;;;12.29;37.65;98805.28;6019794;23;20020;-90
2022/12/21 06:58:15;;;;;;;0.50;0.50;;;;;;;12.21;37.37;98799.25;6019291;23;20014;-90
2022/12/21 07:00:41;;;;;;;0.60;0.50;;;;;;;12.48;37.82;98830.84;6019247;23;20015;-90
2022/12/21 07:03:07;;;;;;;0.45;0.45;;;;;;;12.36;37.72;98809.44;6066964;23;20058;-90
2022/12/21 07:05:33;;;;;;;0.50;0.50;;;;;;;12.57;37.78;98842.81;6089725;23;20018;-90
2022/12/21 07:08:00;;;;;;;0.63;0.63;;;;;;;12.07;37.95;98768.41;6091078;23;20002;-90
2022/12/21 07:10:25;;;;;;;0.40;0.40;;;;;;;12.57;37.95;98844.66;6041507;23;20057;-89
2022/12/21 07:12:51;;;;;;;1.27;0.60;;;;;;;12.30;37.58;98801.56;6041313;23;20018;-89
2022/12/21 07:15:17;;;;;;;0.63;0.55;;;;;;;12.54;37.56;98835.25;6066844;23;19998;-90
2022/12/21 07:17:43;;;;;;;0.50;0.50;;;;;;;12.54;37.28;98837.94;6042391;23;20015;-89
2022/12/21 07:20:09;;;;;;;0.47;0.47;;;;;;;12.35;37.69;98801.66;6042463;23;20547;-90
2022/12/21 07:22:35;;;;;;;0.40;0.40;;;;;;;12.34;38.00;98792.00;6043762;23;20435;-90
2022/12/21 07:25:01;;;;;;;1.95;0.50;;;;;;;12.40;38.03;98802.56;6016684;23;20415;-89
2022/12/21 07:27:26;;;;;;;0.98;0.65;;;;;;;12.51;37.59;98821.53;6040825;23;20495;-90
2022/12/21 07:29:52;;;;;;;0.50;0.50;;;;;;;12.36;37.72;98801.41;6065368;23;20301;-90
2022/12/21 07:32:18;;;;;;;0.57;0.50;;;;;;;12.26;37.80;98778.97;6041242;23;20282;-89
2022/12/21 07:34:43;;;;;;;0.60;0.60;;;;;;;12.24;38.01;98778.41;6064006;23;20064;-90
2022/12/21 07:37:09;;;;;;;0.57;0.50;;;;;;;12.37;37.60;98812.94;6040327;23;20006;-89
2022/12/21 07:39:35;;;;;;;0.50;0.50;;;;;;;12.28;37.77;98784.88;6018888;23;20327;-90
2022/12/21 07:42:01;;;;;;;0.50;0.50;;;;;;;12.43;37.78;98806.63;6043262;23;20439;-90
2022/12/21 07:44:26;;;;;;;0.57;0.50;;;;;;;12.43;37.96;98816.53;6067067;23;20006;-89
2022/12/21 07:46:52;;;;;;;0.40;0.40;;;;;;;12.31;38.25;98781.75;6066696;23;20335;-89
2022/12/21 07:49:18;;;;;;;0.50;0.50;;;;;;;12.31;38.09;98792.44;6042002;23;20045;-89
2022/12/21 07:51:46;;;;;;;0.93;0.50;;;;;;;12.39;38.01;98802.81;6092381;23;20399;-89
2022/12/21 07:54:12;;;;;;;0.30;0.30;;;;;;;12.32;37.98;98784.19;6066908;23;20325;-89
2022/12/21 07:56:38;;;;;;;0.40;0.40;;;;;;;12.37;37.76;98799.56;6066588;23;20010;-89
2022/12/21 07:59:03;;;;;;;0.50;0.50;;;;;;;12.47;37.67;98813.16;6041894;23;20010;-89
2022/12/21 08:01:29;;;;;;;0.45;0.45;;;;;;;12.39;37.75;98792.88;6066824;23;20097;-89
2022/12/21 08:03:57;;;;;;;0.40;0.40;;;;;;;12.27;37.97;98780.59;6066782;23;20015;-89
2022/12/21 08:06:23;;;;;;;0.68;0.50;;;;;;;12.30;38.03;98780.13;6090830;23;20041;-89
2022/12/21 08:08:48;;;;;;;0.40;0.40;;;;;;;12.39;38.24;98800.13;6066168;23;20420;-89
2022/12/21 08:11:16;;;;;;;0.60;0.50;;;;;;;12.45;38.42;98787.63;6043034;23;20505;-89
2022/12/21 08:13:42;;;;;;;0.60;0.50;;;;;;;12.51;38.31;98792.84;6042772;23;20017;-89
2022/12/21 08:16:09;;;;;;;0.40;0.40;;;;;;;12.48;38.43;98790.66;6066941;23;20085;-89
2022/12/21 08:18:35;;;;;;;0.50;0.50;;;;;;;12.50;37.72;98779.69;6042895;23;20014;-88
2022/12/21 08:21:00;;;;;;;0.40;0.40;;;;;;;12.59;37.91;98783.63;6042508;23;20021;-89
2022/12/21 08:23:26;;;;;;;0.38;0.38;;;;;;;12.57;37.97;98773.16;6042156;23;20002;-89
2022/12/21 08:25:52;;;;;;;0.50;0.40;;;;;;;12.63;38.02;98786.63;6042847;23;20048;-89
2022/12/21 08:28:18;;;;;;;0.50;0.50;;;;;;;12.51;38.34;98773.28;6042647;23;20449;-89
2022/12/21 08:30:43;;;;;;;0.60;0.40;;;;;;;12.44;38.53;98770.75;6018392;23;20112;-88
2022/12/21 08:33:12;;;;;;;0.40;0.40;;;;;;;12.49;38.16;98776.22;6042280;23;20470;-89
2022/12/21 08:35:37;;;;;;;0.70;0.50;;;;;;;12.42;37.93;98751.44;6042814;23;20021;-89
2022/12/21 08:38:03;;;;;;;0.40;0.40;;;;;;;12.51;38.04;98771.41;6065609;23;20084;-89
2022/12/21 08:40:29;;;;;;;0.40;0.40;;;;;;;12.54;38.30;98776.31;6065891;23;20010;-89
2022/12/21 08:42:54;;;;;;;0.40;0.40;;;;;;;12.51;38.08;98779.44;6091464;23;20007;-89
2022/12/21 08:45:20;;;;;;;0.43;0.43;;;;;;;12.51;38.23;98776.78;6042928;23;20085;-90
2022/12/21 08:47:48;;;;;;;0.55;0.43;;;;;;;12.47;38.16;98764.91;6092317;23;20325;-89
2022/12/21 08:50:14;;;;;;;0.40;0.40;;;;;;;12.34;38.03;98741.09;6042445;23;20014;-89
2022/12/21 08:52:45;;;;;;;0.40;0.40;;;;;;;12.30;38.35;98740.75;6065970;23;20451;-89
2022/12/21 08:55:11;;;;;;;0.50;0.50;;;;;;;12.23;38.15;98732.06;6092057;23;20479;-89
2022/12/21 08:57:37;;;;;;;0.75;0.40;;;;;;;12.52;38.28;98778.41;6065600;23;20018;-89
2022/12/21 09:00:03;;;;;;;0.40;0.40;;;;;;;12.47;38.32;98762.25;6091881;23;20022;-89
2022/12/21 09:02:29;;;;;;;0.40;0.40;;;;;;;12.47;38.34;98770.28;6042810;23;20007;-89
2022/12/21 09:04:55;;;;;;;0.40;0.40;;;;;;;12.51;38.31;98768.72;6066010;23;20356;-89
2022/12/21 09:07:21;;;;;;;0.30;0.30;;;;;;;12.23;38.31;98717.84;6091712;23;20445;-89
2022/12/21 09:09:46;;;;;;;0.68;0.40;;;;;;;12.27;38.05;98729.72;6018224;23;20006;-90
2022/12/21 09:12:12;;;;;;;0.32;0.32;;;;;;;12.26;38.22;98730.75;6066222;23;20053;-90
2022/12/21 09:14:38;;;;;;;0.40;0.40;;;;;;;12.41;38.38;98755.16;6042445;23;20010;-90
2022/12/21 09:17:04;;;;;;;0.47;0.47;;;;;;;12.18;38.61;98719.38;6018016;23;20014;-90
2022/12/21 09:19:29;;;;;;;0.35;0.35;;;;;;;12.32;38.33;98740.53;6042008;23;20006;-89
2022/12/21 09:21:55;;;;;;;0.47;0.47;;;;;;;12.23;38.53;98724.03;6018670;23;20066;-90
2022/12/21 09:24:21;;;;;;;0.45;0.45;;;;;;;12.28;38.44;98725.97;6066189;23;20009;-89
2022/12/21 09:26:46;;;;;;;0.32;0.32;;;;;;;12.17;38.25;98704.34;6065762;23;20030;-89
2022/12/21 09:29:12;;;;;;;0.50;0.40;;;;;;;12.28;38.06;98723.28;6091516;23;20444;-89
2022/12/21 09:31:38;;;;;;;0.40;0.40;;;;;;;12.42;38.27;98746.06;6042540;23;20006;-89
2022/12/21 09:34:03;;;;;;;0.40;0.38;;;;;;;12.37;38.22;98727.22;6042377;23;20026;-89
2022/12/21 09:36:32;;;;;;;0.40;0.40;;;;;;;12.31;38.30;98725.50;6091578;23;20338;-89
2022/12/21 09:38:57;;;;;;;0.50;0.40;;;;;;;12.19;38.56;98694.22;6041791;23;20439;-89
2022/12/21 09:42:08;;;;;;;0.40;0.40;;;;;;;12.49;38.57;98736.00;6066062;23;20021;-89
2022/12/21 09:44:48;;;;;;;0.40;0.40;;;;;;;12.48;38.67;98737.06;5974923;24;20045;-89
2022/12/21 09:47:17;;;;;;;0.40;0.30;;;;;;;12.21;38.28;98704.69;5974817;24;20013;-89
2022/12/21 09:49:55;;;;;;;0.45;0.45;;;;;;;12.13;38.32;98695.16;6029955;23;20014;-89
2022/12/21 09:52:27;;;;;;;0.30;0.30;;;;;;;12.13;38.32;98689.81;6068146;23;20313;-89
2022/12/21 09:55:05;;;;;;;0.50;0.50;;;;;;;12.25;38.40;98718.44;6066121;23;20033;-89
2022/12/21 09:57:33;;;;;;;0.45;0.45;;;;;;;12.27;38.75;98700.25;6065995;23;20479;-89
2022/12/21 09:59:59;;;;;;;0.38;0.38;;;;;;;12.31;38.73;98704.06;6041941;23;20003;-89
2022/12/21 10:02:26;;;;;;;0.40;0.40;;;;;;;12.47;38.68;98724.72;6066420;23;20321;-88
2022/12/21 10:05:18;;;;;;;0.40;0.38;;;;;;;12.48;38.50;98729.03;6091626;23;20033;-89
2022/12/21 10:08:14;;;;;;;0.30;0.30;;;;;;;12.45;38.73;98724.13;6066798;23;20022;-89
2022/12/21 10:11:12;;;;;;;0.30;0.30;;;;;;;12.41;38.51;98714.97;6092001;23;20344;-88
2022/12/21 10:13:56;;;;;;;0.30;0.30;;;;;;;12.45;38.56;98720.66;6046133;23;20032;-88
2022/12/21 10:16:37;;;;;;;0.50;0.40;;;;;;;12.42;38.33;98707.72;6092211;23;20440;-89
2022/12/21 10:19:16;;;;;;;0.32;0.32;;;;;;;12.37;38.32;98706.59;6091743;23;20037;-88
2022/12/21 10:22:03;;;;;;;0.50;0.40;;;;;;;12.43;38.69;98718.22;6021245;23;20010;-88
2022/12/21 10:24:41;;;;;;;0.40;0.40;;;;;;;12.39;38.75;98703.69;6092528;23;20019;-88
2022/12/21 10:27:40;;;;;;;0.38;0.30;;;;;;;12.37;38.80;98703.09;6046362;23;20003;-89
2022/12/21 10:30:10;;;;;;;0.50;0.50;;;;;;;12.36;38.71;98698.78;6025463;23;20354;-89
2022/12/21 10:32:36;;;;;;;0.30;0.30;;;;;;;12.40;38.56;98716.03;6044382;23;20018;-89
2022/12/21 10:35:20;;;;;;;0.40;0.40;;;;;;;12.41;38.50;98712.28;6044259;23;20019;-89
2022/12/21 10:37:50;;;;;;;0.87;0.50;;;;;;;12.42;38.45;98713.09;6020430;23;20020;-89
2022/12/21 10:40:16;;;;;;;0.28;0.28;;;;;;;12.40;38.53;98708.00;6020648;23;20014;-89
2022/12/21 10:42:43;;;;;;;0.28;0.28;;;;;;;12.34;38.61;98695.53;6043429;23;20007;-89
2022/12/21 10:45:13;;;;;;;0.40;0.40;;;;;;;12.37;38.82;98701.22;6043283;23;20002;-88
2022/12/21 10:47:40;;;;;;;0.40;0.40;;;;;;;12.34;38.73;98693.66;6042905;23;20006;-89
2022/12/21 10:50:33;;;;;;;0.30;0.30;;;;;;;12.45;38.71;98696.53;6043311;23;20038;-89
2022/12/21 10:52:59;;;;;;;0.40;0.40;;;;;;;12.40;38.60;98692.72;6021030;23;20025;-89
2022/12/21 10:55:32;;;;;;;0.40;0.40;;;;;;;12.37;38.66;98682.47;6019746;23;20006;-89
2022/12/21 10:58:01;;;;;;;0.40;0.40;;;;;;;12.45;38.77;98686.63;6043534;23;20036;-89
2022/12/21 11:00:31;;;;;;;0.35;0.35;;;;;;;12.43;38.50;98690.63;6067149;23;20081;-90
2022/12/21 11:03:02;;;;;;;0.40;0.40;;;;;;;12.38;38.98;98675.25;6042387;23;20462;-89
2022/12/21 11:05:36;;;;;;;0.43;0.43;;;;;;;12.34;38.55;98679.47;6020052;23;20456;-89
2022/12/21 11:08:14;;;;;;;;;;;;;;;12.43;38.45;98686.06;6020391;23;20544;-90
2022/12/21 11:10:51;;;;;;;0.45;0.40;;;;;;;12.36;39.05;98672.00;6067400;23;19916;-90
2022/12/21 11:13:17;;;;;;;0.40;0.40;;;;;;;12.45;39.05;98686.63;6020374;23;20387;-90
2022/12/21 11:16:05;;;;;;;0.55;0.45;;;;;;;12.43;39.06;98688.72;6019935;23;20006;-90
2022/12/21 11:18:49;;;;;;;0.40;0.40;;;;;;;12.38;38.92;98675.25;6042994;23;20019;-89
2022/12/21 11:21:39;;;;;;;0.52;0.47;;;;;;;12.40;38.93;98679.31;6043640;23;20470;-89
2022/12/21 11:24:06;;;;;;;0.38;0.38;;;;;;;12.41;38.81;98677.44;6066837;23;20006;-89
2022/12/21 11:26:35;;;;;;;0.43;0.40;;;;;;;12.35;38.84;98676.56;6043645;23;20335;-89
2022/12/21 11:29:06;;;;;;;0.38;0.38;;;;;;;12.39;38.64;98672.34;6042956;23;20010;-89
2022/12/21 11:31:32;;;;;;;0.30;0.30;;;;;;;12.33;39.04;98657.25;6042927;23;20515;-89
2022/12/21 11:33:58;;;;;;;0.40;0.40;;;;;;;12.38;38.90;98664.53;6019594;23;20014;-89
2022/12/21 11:36:23;;;;;;;0.38;0.38;;;;;;;12.35;38.84;98659.69;6019611;23;20138;-89
2022/12/21 11:38:49;;;;;;;0.30;0.30;;;;;;;12.33;38.81;98651.88;6066550;23;20037;-89
2022/12/21 11:41:18;;;;;;;0.30;0.30;;;;;;;12.40;38.55;98657.91;6067232;23;20007;-89
2022/12/21 11:43:45;;;;;;;0.32;0.32;;;;;;;12.40;39.17;98662.44;6042616;23;20018;-89
2022/12/21 11:46:27;;;;;;;0.40;0.30;;;;;;;12.36;39.12;98659.41;6043153;23;20041;-89
2022/12/21 11:49:31;;;;;;;0.40;0.40;;;;;;;12.40;38.79;98663.25;6017720;23;20097;-89
2022/12/21 11:52:12;;;;;;;0.30;0.30;;;;;;;12.42;38.85;98676.41;6042731;23;20018;-89
2022/12/21 11:54:46;;;;;;;0.40;0.40;;;;;;;12.39;38.95;98663.50;6090980;23;20611;-89
2022/12/21 11:57:36;;;;;;;0.30;0.30;;;;;;;12.43;39.01;98667.31;6015199;23;20018;-89
2022/12/21 12:00:06;;;;;;;0.40;0.40;;;;;;;12.33;39.21;98645.69;6061753;23;20010;-89
2022/12/21 12:02:41;;;;;;;0.40;0.40;;;;;;;12.39;39.01;98666.16;6039321;23;20066;-89